createdAt,value
2023-03-06T00:01:28.918Z,5.68
2023-03-06T00:03:33.721Z,6.82
2023-03-06T00:05:38.063Z,7.00
2023-03-06T00:07:42.133Z,7.40
2023-03-06T00:09:47.533Z,5.53
2023-03-06T00:11:51.602Z,6.03
2023-03-06T00:13:55.645Z,5.95
2023-03-06T00:16:00.540Z,6.70
2023-03-06T00:18:05.220Z,6.90
2023-03-06T00:20:11.068Z,6.32
2023-03-06T00:22:15.747Z,3.60
2023-03-06T00:24:20.182Z,6.03
2023-03-06T00:26:25.580Z,5.10
2023-03-06T00:28:30.851Z,6.28
2023-03-06T00:30:34.980Z,5.65
2023-03-06T00:32:39.371Z,6.50
2023-03-06T00:34:43.451Z,4.88
2023-03-06T00:36:47.861Z,7.57
2023-03-06T00:38:51.931Z,4.72
2023-03-06T00:40:56.023Z,4.38
2023-03-06T00:43:01.430Z,5.65
2023-03-06T00:45:06.445Z,4.65
2023-03-06T00:47:11.096Z,5.45
2023-03-06T00:49:15.223Z,6.32
2023-03-06T00:51:19.700Z,6.57
2023-03-06T00:53:23.762Z,6.75
2023-03-06T00:55:29.292Z,6.10
2023-03-06T00:57:33.364Z,4.63
2023-03-06T00:59:38.772Z,8.55
2023-03-06T01:01:42.887Z,7.32
2023-03-06T01:03:46.994Z,5.82
2023-03-06T01:05:51.145Z,4.10
2023-03-06T01:07:55.239Z,4.75
2023-03-06T01:09:59.336Z,4.63
2023-03-06T01:12:03.402Z,4.45
2023-03-06T01:14:07.532Z,4.35
2023-03-06T01:16:14.249Z,4.05
2023-03-06T01:18:18.358Z,6.03
2023-03-06T01:20:22.427Z,5.18
2023-03-06T01:22:26.735Z,3.47
2023-03-06T01:24:30.793Z,5.63
2023-03-06T01:26:34.918Z,4.80
2023-03-06T01:28:39.118Z,5.95
2023-03-06T01:30:43.208Z,5.22
2023-03-06T01:32:49.094Z,5.10
2023-03-06T01:34:53.268Z,4.10
2023-03-06T01:36:57.342Z,4.18
2023-03-06T01:39:01.559Z,5.15
2023-03-06T01:41:06.199Z,4.70
2023-03-06T01:43:25.408Z,5.70
2023-03-06T01:46:06.680Z,6.30
2023-03-06T01:48:12.131Z,6.90
2023-03-06T01:50:16.378Z,5.82
2023-03-06T01:52:22.308Z,5.03
2023-03-06T01:54:27.701Z,5.57
2023-03-06T01:56:32.164Z,5.43
2023-03-06T01:58:36.282Z,5.07
2023-03-06T02:00:40.462Z,5.07
2023-03-06T02:02:46.693Z,6.00
2023-03-06T02:04:52.120Z,5.03
2023-03-06T02:06:56.392Z,4.30
2023-03-06T02:09:00.440Z,4.57
2023-03-06T02:11:11.537Z,5.70
2023-03-06T02:13:15.578Z,5.85
2023-03-06T02:15:20.767Z,5.32
2023-03-06T02:17:24.926Z,4.90
2023-03-06T02:19:34.265Z,4.93
2023-03-06T02:21:39.670Z,6.72
2023-03-06T02:23:50.300Z,3.50
2023-03-06T02:25:55.985Z,5.17
2023-03-06T02:28:01.529Z,5.25
2023-03-06T02:30:08.229Z,4.78
2023-03-06T02:32:12.357Z,6.80
2023-03-06T02:34:49.735Z,7.07
2023-03-06T02:36:54.875Z,5.53
2023-03-06T02:38:58.957Z,6.85
2023-03-06T02:41:06.237Z,5.35
2023-03-06T02:43:10.468Z,6.07
2023-03-06T02:45:14.632Z,4.60
2023-03-06T02:47:18.658Z,5.88
2023-03-06T02:49:24.379Z,5.93
2023-03-06T02:51:29.491Z,4.60
2023-03-06T02:53:33.929Z,4.15
2023-03-06T02:55:38.026Z,4.85
2023-03-06T02:57:43.538Z,4.47
2023-03-06T02:59:47.661Z,6.68
2023-03-06T03:01:53.087Z,4.93
2023-03-06T03:03:57.219Z,4.82
2023-03-06T03:06:01.524Z,4.63
2023-03-06T03:08:09.329Z,4.72
2023-03-06T03:10:13.769Z,4.70
2023-03-06T03:12:18.616Z,4.03
2023-03-06T03:14:25.247Z,4.60
2023-03-06T03:16:29.810Z,4.32
2023-03-06T03:18:36.043Z,5.40
2023-03-06T03:20:43.611Z,5.65
2023-03-06T03:22:49.458Z,5.00
2023-03-06T03:24:53.577Z,4.15
2023-03-06T03:26:58.362Z,3.67
2023-03-06T03:29:04.109Z,4.78
2023-03-06T03:31:10.848Z,3.67
2023-03-06T03:33:14.983Z,3.53
2023-03-06T03:35:20.169Z,4.32
2023-03-06T03:37:24.650Z,6.25
2023-03-06T03:39:29.211Z,5.35
2023-03-06T03:41:34.327Z,3.60
2023-03-06T03:43:41.513Z,4.75
2023-03-06T03:45:45.906Z,3.95
2023-03-06T03:47:51.368Z,3.97
2023-03-06T03:49:55.601Z,4.43
2023-03-06T03:52:00.434Z,5.45
2023-03-06T03:54:07.533Z,5.22
2023-03-06T03:56:16.919Z,6.70
2023-03-06T03:58:32.015Z,3.60
2023-03-06T04:00:36.109Z,3.58
2023-03-06T04:02:48.131Z,4.00
2023-03-06T04:05:02.035Z,3.33
2023-03-06T04:07:06.246Z,3.55
2023-03-06T04:09:10.598Z,3.90
2023-03-06T04:11:15.516Z,4.32
2023-03-06T04:13:20.873Z,4.90
2023-03-06T04:15:25.261Z,4.22
2023-03-06T04:17:29.939Z,4.32
2023-03-06T04:19:34.314Z,4.10
2023-03-06T04:21:40.305Z,4.90
2023-03-06T04:23:45.742Z,4.55
2023-03-06T04:25:49.985Z,5.38
2023-03-06T04:27:54.231Z,4.22
2023-03-06T04:29:58.739Z,4.25
2023-03-06T04:32:02.918Z,3.35
2023-03-06T04:34:07.180Z,3.00
2023-03-06T04:36:12.987Z,4.95
2023-03-06T04:38:18.447Z,5.53
2023-03-06T04:40:24.486Z,6.53
2023-03-06T04:42:28.867Z,3.25
2023-03-06T04:44:32.912Z,4.07
2023-03-06T04:46:37.014Z,4.32
2023-03-06T04:48:41.107Z,3.50
2023-03-06T04:50:45.226Z,3.15
2023-03-06T04:52:49.386Z,4.63
2023-03-06T04:54:55.193Z,4.88
2023-03-06T04:56:59.276Z,3.42
2023-03-06T04:59:04.125Z,5.53
2023-03-06T05:01:08.271Z,4.35
2023-03-06T05:03:12.371Z,4.10
2023-03-06T05:05:16.799Z,5.75
2023-03-06T05:07:20.898Z,3.72
2023-03-06T05:09:25.159Z,3.47
2023-03-06T05:11:30.557Z,3.63
2023-03-06T05:13:34.640Z,5.80
2023-03-06T05:15:40.611Z,3.15
2023-03-06T05:17:44.680Z,5.47
2023-03-06T05:19:48.754Z,3.85
2023-03-06T05:21:52.828Z,3.00
2023-03-06T05:23:56.922Z,6.43
2023-03-06T05:26:01.460Z,4.78
2023-03-06T05:28:06.876Z,5.28
2023-03-06T05:30:12.735Z,2.75
2023-03-06T05:32:17.669Z,5.05
2023-03-06T05:34:21.730Z,4.45
2023-03-06T05:36:25.862Z,4.13
2023-03-06T05:38:30.033Z,5.00
2023-03-06T05:40:34.116Z,3.50
2023-03-06T05:42:38.190Z,3.95
2023-03-06T05:44:43.673Z,3.55
2023-03-06T05:46:49.526Z,4.03
2023-03-06T05:48:55.289Z,4.65
2023-03-06T05:50:59.786Z,3.13
2023-03-06T05:53:03.892Z,4.20
2023-03-06T05:55:09.333Z,3.92
2023-03-06T05:57:13.410Z,3.85
2023-03-06T05:59:17.650Z,6.25
2023-03-06T06:01:25.216Z,3.80
2023-03-06T06:03:29.334Z,3.30
2023-03-06T06:05:33.423Z,3.20
2023-03-06T06:07:37.505Z,4.03
2023-03-06T06:09:43.325Z,3.25
2023-03-06T06:11:47.729Z,2.83
2023-03-06T06:13:51.808Z,3.13
2023-03-06T06:15:55.906Z,3.55
2023-03-06T06:18:01.325Z,3.90
2023-03-06T06:20:05.852Z,3.42
2023-03-06T06:22:10.250Z,2.75
2023-03-06T06:24:14.571Z,4.38
2023-03-06T06:26:18.623Z,5.25
2023-03-06T06:28:22.718Z,3.90
2023-03-06T06:30:26.777Z,5.82
2023-03-06T06:32:30.870Z,7.68
2023-03-06T06:34:36.295Z,4.03
2023-03-06T06:36:40.459Z,5.97
2023-03-06T06:38:44.572Z,3.78
2023-03-06T06:41:19.034Z,3.92
2023-03-06T06:43:12.678Z,3.10
2023-03-06T06:45:16.897Z,2.85
2023-03-06T06:47:23.466Z,3.83
2023-03-06T06:49:27.916Z,3.17
2023-03-06T06:51:33.787Z,5.15
2023-03-06T06:53:37.853Z,3.25
2023-03-06T06:55:42.868Z,3.35
2023-03-06T06:57:46.979Z,4.07
2023-03-06T06:59:53.435Z,5.80
2023-03-06T07:01:57.969Z,4.80
2023-03-06T07:04:02.198Z,4.45
2023-03-06T07:06:06.611Z,6.30
2023-03-06T07:08:12.033Z,4.30
2023-03-06T07:10:16.736Z,2.75
2023-03-06T07:12:20.830Z,7.50
2023-03-06T07:14:25.024Z,6.65
2023-03-06T07:16:29.120Z,3.47
2023-03-06T07:18:33.557Z,3.05
2023-03-06T07:20:38.162Z,3.40
2023-03-06T07:22:50.865Z,3.75
2023-03-06T07:24:57.218Z,3.35
2023-03-06T07:27:01.300Z,3.38
2023-03-06T07:29:05.708Z,3.17
2023-03-06T07:31:11.395Z,2.78
2023-03-06T07:33:15.673Z,3.20
2023-03-06T07:35:20.942Z,2.13
2023-03-06T07:37:25.160Z,4.63
2023-03-06T07:39:30.126Z,7.40
2023-03-06T07:41:35.606Z,4.40
2023-03-06T07:43:39.779Z,3.78
2023-03-06T07:45:46.746Z,6.28
2023-03-06T07:47:51.482Z,3.08
2023-03-06T07:49:56.351Z,15.27
2023-03-06T07:52:01.377Z,6.57
2023-03-06T07:54:05.575Z,5.97
2023-03-06T07:56:11.133Z,6.15
2023-03-06T07:58:16.579Z,3.92
2023-03-06T08:00:21.475Z,4.63
2023-03-06T08:02:25.891Z,5.20
2023-03-06T08:04:30.319Z,6.55
2023-03-06T08:06:34.450Z,3.67
2023-03-06T08:08:39.231Z,8.00
2023-03-06T08:10:47.797Z,5.93
2023-03-06T08:12:51.910Z,5.32
2023-03-06T08:14:57.402Z,4.68
2023-03-06T08:17:01.840Z,5.18
2023-03-06T08:19:05.896Z,5.28
2023-03-06T08:21:11.047Z,4.60
2023-03-06T08:23:15.124Z,5.60
2023-03-06T08:25:19.471Z,8.73
2023-03-06T08:27:23.959Z,9.27
2023-03-06T08:29:28.128Z,6.20
2023-03-06T08:31:34.566Z,6.07
2023-03-06T08:33:38.779Z,5.68
2023-03-06T08:35:42.873Z,4.90
2023-03-06T08:37:46.947Z,6.03
2023-03-06T08:39:51.000Z,5.93
2023-03-06T08:41:55.082Z,5.25
2023-03-06T08:43:59.135Z,5.15
2023-03-06T08:46:03.372Z,5.88
2023-03-06T08:48:08.862Z,5.00
2023-03-06T08:50:13.618Z,4.13
2023-03-06T08:52:17.698Z,10.65
2023-03-06T08:54:21.769Z,4.68
2023-03-06T08:56:26.726Z,4.45
2023-03-06T08:58:31.865Z,4.65
2023-03-06T09:00:35.989Z,3.22
2023-03-06T09:02:40.191Z,5.00
2023-03-06T09:04:45.996Z,3.17
2023-03-06T09:06:50.119Z,4.95
2023-03-06T09:08:54.376Z,6.72
2023-03-06T09:10:59.069Z,5.25
2023-03-06T09:13:03.192Z,5.53
2023-03-06T09:15:08.362Z,3.42
2023-03-06T09:17:12.439Z,3.65
2023-03-06T09:19:16.550Z,3.63
2023-03-06T09:21:22.084Z,4.47
2023-03-06T09:23:26.152Z,6.97
2023-03-06T09:25:30.307Z,3.30
2023-03-06T09:27:34.365Z,4.65
2023-03-06T09:29:38.441Z,3.85
2023-03-06T09:31:42.601Z,5.15
2023-03-06T09:33:47.249Z,4.25
2023-03-06T09:35:51.989Z,3.45
2023-03-06T09:37:57.451Z,4.15
2023-03-06T09:40:01.539Z,3.90
2023-03-06T09:42:06.925Z,3.10
2023-03-06T09:44:14.604Z,4.40
2023-03-06T09:46:22.402Z,4.35
2023-03-06T09:48:30.011Z,8.13
2023-03-06T09:50:37.031Z,4.10
2023-03-06T09:52:47.079Z,3.15
2023-03-06T09:54:54.318Z,4.10
2023-03-06T09:56:58.426Z,5.65
2023-03-06T09:59:12.576Z,3.25
2023-03-06T10:01:19.242Z,4.65
2023-03-06T10:03:25.790Z,3.08
2023-03-06T10:05:34.262Z,4.13
2023-03-06T10:07:44.670Z,3.45
2023-03-06T10:09:52.969Z,4.32
2023-03-06T10:11:58.446Z,5.22
2023-03-06T10:14:12.731Z,3.08
2023-03-06T10:16:27.179Z,3.42
2023-03-06T10:18:31.301Z,4.55
2023-03-06T10:20:37.874Z,3.63
2023-03-06T10:22:52.543Z,3.75
2023-03-06T10:25:11.078Z,3.08
2023-03-06T10:29:32.604Z,3.50
2023-03-06T10:31:36.819Z,4.22
2023-03-06T10:33:48.117Z,3.70
2023-03-06T10:35:53.193Z,7.35
2023-03-06T10:38:10.886Z,3.38
2023-03-06T10:40:18.708Z,3.60
2023-03-06T10:42:26.630Z,3.42
2023-03-06T10:44:32.213Z,3.47
2023-03-06T10:46:39.214Z,4.13
2023-03-06T10:48:43.480Z,4.25
2023-03-06T10:50:47.541Z,4.85
2023-03-06T10:53:00.722Z,4.18
2023-03-06T10:55:24.737Z,3.97
2023-03-06T10:57:29.655Z,3.13
2023-03-06T10:59:33.735Z,5.57
2023-03-06T11:01:38.341Z,3.22
2023-03-06T11:03:42.436Z,3.42
2023-03-06T11:06:07.961Z,3.70
2023-03-06T11:08:20.082Z,3.30
2023-03-06T11:10:25.876Z,3.20
2023-03-06T11:12:33.818Z,4.85
2023-03-06T11:14:38.254Z,4.97
2023-03-06T11:16:42.317Z,2.70
2023-03-06T11:18:57.252Z,2.92
2023-03-06T11:21:01.587Z,3.10
2023-03-06T11:23:08.063Z,3.65
2023-03-06T11:25:12.551Z,6.47
2023-03-06T11:27:22.498Z,2.50
2023-03-06T11:29:36.912Z,3.07
2023-03-06T11:31:45.769Z,3.00
2023-03-06T11:33:52.050Z,2.08
2023-03-06T11:35:59.070Z,6.03
2023-03-06T11:38:06.967Z,3.22
2023-03-06T11:40:16.507Z,3.40
2023-03-06T11:42:23.050Z,3.70
2023-03-06T11:44:31.765Z,3.13
2023-03-06T11:46:37.992Z,3.92
2023-03-06T11:48:43.826Z,3.85
2023-03-06T11:50:49.104Z,2.92
2023-03-06T11:52:53.793Z,4.00
2023-03-06T11:54:58.160Z,10.77
2023-03-06T11:57:05.417Z,3.95
2023-03-06T11:59:36.167Z,3.30
2023-03-06T12:01:42.190Z,3.75
2023-03-06T12:04:01.750Z,4.30
2023-03-06T12:06:06.830Z,2.75
2023-03-06T12:08:18.626Z,3.40
2023-03-06T12:10:24.185Z,5.15
2023-03-06T12:12:59.065Z,3.50
2023-03-06T12:15:13.669Z,3.03
2023-03-06T12:17:25.735Z,2.97
2023-03-06T12:19:39.950Z,3.20
2023-03-06T12:21:48.620Z,4.68
2023-03-06T12:24:01.977Z,4.10
2023-03-06T12:26:10.733Z,3.47
2023-03-06T12:28:34.567Z,2.03
2023-03-06T12:30:54.573Z,4.10
2023-03-06T12:33:01.573Z,3.22
2023-03-06T12:35:15.003Z,4.00
2023-03-06T12:37:23.335Z,2.83
2023-03-06T12:39:30.759Z,2.88
2023-03-06T12:41:44.456Z,3.80
2023-03-06T12:44:22.044Z,1.88
2023-03-06T12:46:27.991Z,3.67
2023-03-06T12:48:34.861Z,3.60
2023-03-06T12:50:39.008Z,2.10
2023-03-06T12:52:43.085Z,2.60
2023-03-06T12:54:47.393Z,3.72
2023-03-06T12:56:51.482Z,2.83
2023-03-06T12:58:55.673Z,3.63
2023-03-06T13:01:05.949Z,5.65
2023-03-06T13:03:15.850Z,4.75
2023-03-06T13:05:48.388Z,3.40
2023-03-06T13:07:58.542Z,7.82
2023-03-06T13:10:10.226Z,2.90
2023-03-06T13:12:21.888Z,2.92
2023-03-06T13:14:27.227Z,5.10
2023-03-06T13:16:32.490Z,4.53
2023-03-06T13:19:01.701Z,2.53
2023-03-06T13:21:06.218Z,4.43
2023-03-06T13:23:47.473Z,3.45
2023-03-06T13:25:51.947Z,2.45
2023-03-06T13:28:03.706Z,2.83
2023-03-06T13:30:25.691Z,2.35
2023-03-06T13:32:33.792Z,3.78
2023-03-06T13:34:39.656Z,3.30
2023-03-06T13:36:43.732Z,3.97
2023-03-06T13:39:01.634Z,2.80
2023-03-06T13:41:33.734Z,3.85
2023-03-06T13:43:43.871Z,2.28
2023-03-06T13:45:49.705Z,2.75
2023-03-06T13:48:21.134Z,3.47
2023-03-06T13:50:31.992Z,3.38
2023-03-06T13:52:39.271Z,2.17
2023-03-06T13:54:48.334Z,3.60
2023-03-06T13:57:17.276Z,2.03
2023-03-06T13:59:40.634Z,3.00
2023-03-06T14:01:49.918Z,2.50
2023-03-06T14:04:34.445Z,3.63
2023-03-06T14:07:01.273Z,4.20
2023-03-06T14:09:06.117Z,4.50
2023-03-06T14:11:18.493Z,4.18
2023-03-06T14:13:26.536Z,3.75
2023-03-06T14:15:36.434Z,2.72
2023-03-06T14:17:40.748Z,2.25
2023-03-06T14:19:44.977Z,2.65
2023-03-06T14:21:50.275Z,2.83
2023-03-06T14:24:01.037Z,2.90
2023-03-06T14:28:23.668Z,3.17
2023-03-06T14:30:27.770Z,2.25
2023-03-06T14:32:31.981Z,2.78
2023-03-06T14:34:38.152Z,2.50
2023-03-06T14:36:44.925Z,2.40
2023-03-06T14:38:51.006Z,2.28
2023-03-06T14:40:56.470Z,2.50
2023-03-06T14:43:16.462Z,2.20
2023-03-06T14:45:21.199Z,3.05
2023-03-06T14:47:27.853Z,2.20
2023-03-06T14:49:31.969Z,3.40
2023-03-06T14:51:37.995Z,2.20
2023-03-06T14:53:42.116Z,2.03
2023-03-06T14:55:50.095Z,2.00
2023-03-06T14:57:57.086Z,3.13
2023-03-06T15:00:01.141Z,3.33
2023-03-06T15:02:06.432Z,3.30
2023-03-06T15:04:17.202Z,3.42
2023-03-06T15:06:22.951Z,2.50
2023-03-06T15:08:28.379Z,2.35
2023-03-06T15:10:33.472Z,2.00
2023-03-06T15:12:38.535Z,3.20
2023-03-06T15:14:48.697Z,3.17
2023-03-06T15:16:52.822Z,4.13
2023-03-06T15:18:57.593Z,3.15
2023-03-06T15:21:16.100Z,2.05
2023-03-06T15:23:26.105Z,3.08
2023-03-06T15:25:30.495Z,2.22
2023-03-06T15:27:34.661Z,2.55
2023-03-06T15:29:40.563Z,4.43
2023-03-06T15:31:49.364Z,2.75
2023-03-06T15:34:24.891Z,1.90
2023-03-06T15:36:30.395Z,2.28
2023-03-06T15:38:36.436Z,2.35
2023-03-06T15:40:40.553Z,3.03
2023-03-06T15:42:44.609Z,2.53
2023-03-06T15:44:49.898Z,3.20
2023-03-06T15:47:06.614Z,2.28
2023-03-06T15:49:15.776Z,1.90
2023-03-06T15:51:19.937Z,2.17
2023-03-06T15:53:24.065Z,8.02
2023-03-06T15:55:28.114Z,2.55
2023-03-06T15:57:32.320Z,4.55
2023-03-06T15:59:41.530Z,4.45
2023-03-06T16:01:45.677Z,2.55
2023-03-06T16:03:51.515Z,5.13
2023-03-06T16:05:55.712Z,1.75
2023-03-06T16:07:59.824Z,2.50
2023-03-06T16:10:04.448Z,3.53
2023-03-06T16:12:11.229Z,2.42
2023-03-06T16:14:21.087Z,2.70
2023-03-06T16:16:29.669Z,5.63
2023-03-06T16:18:33.846Z,4.07
2023-03-06T16:20:40.045Z,3.22
2023-03-06T16:22:44.555Z,2.13
2023-03-06T16:24:49.355Z,3.45
2023-03-06T16:26:54.826Z,3.63
2023-03-06T16:28:58.930Z,2.75
2023-03-06T16:31:03.409Z,2.03
2023-03-06T16:33:07.662Z,2.55
2023-03-06T16:35:12.205Z,2.03
2023-03-06T16:37:17.703Z,2.03
2023-03-06T16:39:23.126Z,2.13
2023-03-06T16:41:27.516Z,2.70
2023-03-06T16:43:32.040Z,1.83
2023-03-06T16:45:37.814Z,2.92
2023-03-06T16:47:41.972Z,4.20
2023-03-06T16:49:46.099Z,2.38
2023-03-06T16:51:50.324Z,2.63
2023-03-06T16:53:55.737Z,2.53
2023-03-06T16:55:59.815Z,2.33
2023-03-06T16:58:04.153Z,1.77
2023-03-06T17:00:11.444Z,3.70
2023-03-06T17:02:15.527Z,4.45
2023-03-06T17:04:19.678Z,2.10
2023-03-06T17:06:23.917Z,3.95
2023-03-06T17:08:28.069Z,4.07
2023-03-06T17:10:33.528Z,4.53
2023-03-06T17:12:38.115Z,3.47
2023-03-06T17:14:42.226Z,3.15
2023-03-06T17:16:46.476Z,4.53
2023-03-06T17:18:50.625Z,2.90
2023-03-06T17:20:54.869Z,2.38
2023-03-06T17:22:58.944Z,4.45
2023-03-06T17:25:03.123Z,4.18
2023-03-06T17:27:08.601Z,2.42
2023-03-06T17:29:13.000Z,1.83
2023-03-06T17:31:17.878Z,3.08
2023-03-06T17:33:22.333Z,2.40
2023-03-06T17:35:26.415Z,2.45
2023-03-06T17:37:30.629Z,2.35
2023-03-06T17:39:35.259Z,1.95
2023-03-06T17:41:39.402Z,2.00
2023-03-06T17:43:44.819Z,2.10
2023-03-06T17:45:48.940Z,2.28
2023-03-06T17:47:55.316Z,2.85
2023-03-06T17:49:59.848Z,2.35
2023-03-06T17:52:05.684Z,3.28
2023-03-06T17:54:10.311Z,2.20
2023-03-06T17:56:14.881Z,2.63
2023-03-06T17:58:19.085Z,2.08
2023-03-06T18:00:25.385Z,4.53
2023-03-06T18:02:29.595Z,4.35
2023-03-06T18:04:33.685Z,2.35
2023-03-06T18:06:38.129Z,3.15
2023-03-06T18:08:42.178Z,4.60
2023-03-06T18:10:47.525Z,3.28
2023-03-06T18:12:51.753Z,4.82
2023-03-06T18:15:00.771Z,7.32
2023-03-06T18:17:06.274Z,8.43
2023-03-06T18:19:11.732Z,11.10
2023-03-06T18:21:16.648Z,3.63
2023-03-06T18:23:20.794Z,9.85
2023-03-06T18:25:24.949Z,5.05
2023-03-06T18:27:29.043Z,8.27
2023-03-06T18:29:33.148Z,9.63
2023-03-06T18:31:37.949Z,7.78
2023-03-06T18:33:43.468Z,9.90
2023-03-06T18:35:47.612Z,8.02
2023-03-06T18:37:52.088Z,13.38
2023-03-06T18:39:56.232Z,13.20
2023-03-06T18:42:00.396Z,14.55
2023-03-06T18:44:04.521Z,10.43
2023-03-06T18:46:08.743Z,15.63
2023-03-06T18:48:12.944Z,7.03
2023-03-06T18:50:18.625Z,10.45
2023-03-06T18:52:22.831Z,7.28
2023-03-06T18:54:28.496Z,14.52
2023-03-06T18:56:32.738Z,12.27
2023-03-06T18:58:36.947Z,10.73
2023-03-06T19:00:41.142Z,7.13
2023-03-06T19:02:45.209Z,8.00
2023-03-06T19:04:49.425Z,8.38
2023-03-06T19:06:55.493Z,9.73
2023-03-06T19:09:01.381Z,13.02
2023-03-06T19:11:06.465Z,7.72
2023-03-06T19:13:11.010Z,7.20
2023-03-06T19:15:15.461Z,11.48
2023-03-06T19:17:19.609Z,8.20
2023-03-06T19:19:26.789Z,10.70
2023-03-06T19:21:30.992Z,14.50
2023-03-06T19:23:36.203Z,10.23
2023-03-06T19:25:40.145Z,7.97
2023-03-06T19:27:45.929Z,5.95
2023-03-06T19:29:49.808Z,7.03
2023-03-06T19:31:56.895Z,7.25
2023-03-06T19:34:01.188Z,6.93
2023-03-06T19:36:05.924Z,6.50
2023-03-06T19:38:10.021Z,6.70
2023-03-06T19:40:16.601Z,10.63
2023-03-06T19:42:20.436Z,10.82
2023-03-06T19:44:24.254Z,7.38
2023-03-06T19:46:28.342Z,8.13
2023-03-06T19:48:32.337Z,7.07
2023-03-06T19:50:36.205Z,8.13
2023-03-06T19:52:40.139Z,9.32
2023-03-06T19:54:43.976Z,7.35
2023-03-06T19:56:49.169Z,9.68
2023-03-06T19:58:53.099Z,10.93
2023-03-06T20:00:57.007Z,7.65
2023-03-06T20:03:01.306Z,9.70
2023-03-06T20:05:09.246Z,8.70
2023-03-06T20:07:13.299Z,6.78
2023-03-06T20:09:17.095Z,9.60
2023-03-06T20:11:22.742Z,11.23
2023-03-06T20:13:27.932Z,10.68
2023-03-06T20:15:34.940Z,10.30
2023-03-06T20:17:40.386Z,7.55
2023-03-06T20:19:44.650Z,7.88
2023-03-06T20:21:48.724Z,7.35
2023-03-06T20:23:53.427Z,12.13
2023-03-06T20:25:57.259Z,10.13
2023-03-06T20:28:01.138Z,8.60
2023-03-06T20:30:08.234Z,6.65
2023-03-06T20:32:12.283Z,7.90
2023-03-06T20:34:16.143Z,4.90
2023-03-06T20:36:21.091Z,7.35
2023-03-06T20:38:24.923Z,7.07
2023-03-06T20:40:28.781Z,6.47
2023-03-06T20:42:32.622Z,8.48
2023-03-06T20:44:36.477Z,6.95
2023-03-06T20:46:41.818Z,6.25
2023-03-06T20:48:48.335Z,7.35
2023-03-06T20:51:01.226Z,7.35
2023-03-06T20:53:05.069Z,8.02
2023-03-06T20:55:10.090Z,6.20
2023-03-06T20:57:13.973Z,6.13
2023-03-06T20:59:17.792Z,5.88
2023-03-06T21:01:21.945Z,7.80
2023-03-06T21:03:27.154Z,9.13
2023-03-06T21:05:31.013Z,7.57
2023-03-06T21:07:34.970Z,13.68
2023-03-06T21:09:39.546Z,8.27
2023-03-06T21:11:43.421Z,12.43
2023-03-06T21:13:47.265Z,9.55
2023-03-06T21:15:51.099Z,5.85
2023-03-06T21:17:55.266Z,10.35
2023-03-06T21:20:00.600Z,6.07
2023-03-06T21:22:04.852Z,7.75
2023-03-06T21:24:08.943Z,5.88
2023-03-06T21:26:13.646Z,10.45
2023-03-06T21:28:17.535Z,11.43
2023-03-06T21:30:21.627Z,9.20
2023-03-06T21:32:25.846Z,6.95
2023-03-06T21:34:29.728Z,9.95
2023-03-06T21:36:34.951Z,10.00
2023-03-06T21:38:38.800Z,9.65
2023-03-06T21:40:43.148Z,9.55
2023-03-06T21:42:46.997Z,4.03
2023-03-06T21:44:50.833Z,9.02
2023-03-06T21:46:54.688Z,10.07
2023-03-06T21:48:58.745Z,5.63
2023-03-06T21:51:07.753Z,6.57
2023-03-06T21:53:12.958Z,5.78
2023-03-06T21:55:17.103Z,5.15
2023-03-06T21:57:21.005Z,4.57
2023-03-06T21:59:25.226Z,6.65
2023-03-06T22:01:29.771Z,15.10
2023-03-06T22:03:33.737Z,12.13
2023-03-06T22:05:37.588Z,10.63
2023-03-06T22:07:41.522Z,11.77
2023-03-06T22:09:47.127Z,11.02
2023-03-06T22:11:51.024Z,17.33
2023-03-06T22:13:54.953Z,12.65
2023-03-06T22:15:58.999Z,9.77
2023-03-06T22:18:02.907Z,11.90
2023-03-06T22:20:07.890Z,9.82
2023-03-06T22:22:11.896Z,10.30
2023-03-06T22:24:15.797Z,8.73
2023-03-06T22:26:21.107Z,8.13
2023-03-06T22:28:25.076Z,6.32
2023-03-06T22:30:29.335Z,12.93
2023-03-06T22:32:33.224Z,9.82
2023-03-06T22:34:37.165Z,6.03
2023-03-06T22:36:41.045Z,7.45
2023-03-06T22:38:46.127Z,8.85
2023-03-06T22:40:49.958Z,6.40
2023-03-06T22:42:55.159Z,6.28
2023-03-06T22:44:59.005Z,6.90
2023-03-06T22:47:02.872Z,4.70
2023-03-06T22:49:06.712Z,5.75
2023-03-06T22:51:12.404Z,7.80
2023-03-06T22:53:16.241Z,5.85
2023-03-06T22:55:20.148Z,5.70
2023-03-06T22:57:24.086Z,7.57
2023-03-06T22:59:29.472Z,4.15
2023-03-06T23:01:34.391Z,6.53
2023-03-06T23:03:38.630Z,5.20
2023-03-06T23:05:42.996Z,10.05
2023-03-06T23:07:46.849Z,7.95
2023-03-06T23:09:50.640Z,6.18
2023-03-06T23:12:13.108Z,5.72
2023-03-06T23:14:36.930Z,7.93
2023-03-06T23:16:59.364Z,4.97
2023-03-06T23:19:21.646Z,6.78
2023-03-06T23:21:43.984Z,5.97
2023-03-06T23:24:07.792Z,4.55
2023-03-06T23:26:13.340Z,5.68
2023-03-06T23:28:17.387Z,4.72
2023-03-06T23:30:23.085Z,6.00
2023-03-06T23:32:26.943Z,6.00
2023-03-06T23:34:30.792Z,7.07
2023-03-06T23:36:34.595Z,4.95
2023-03-06T23:38:38.525Z,5.50
2023-03-06T23:40:42.425Z,5.78
2023-03-06T23:42:46.567Z,5.50
2023-03-06T23:44:50.398Z,4.55
2023-03-06T23:46:55.558Z,5.28
2023-03-06T23:48:59.398Z,5.28
2023-03-06T23:51:07.249Z,8.02
2023-03-06T23:53:11.454Z,4.30
2023-03-06T23:55:15.300Z,4.63
2023-03-06T23:57:19.359Z,5.40
2023-03-06T23:59:23.286Z,4.53
